Time;durP1;ratioP1;P1;durP2;ratioP2;P2;SDS_P1;SDS_P2;PMS_P1;PMS_P2;Temp;Humidity;BMP_temperature;BMP_pressure;BME280_temperature;BME280_humidity;BME280_pressure;Samples;Min_cycle;Max_cycle;Signal;HPM_P1;HPM_P2
2023/03/21 00:00:47;;;;;;;6.80;6.10;;;;;;;;;;4937533;29;20451;-63
2023/03/21 00:03:15;;;;;;;7.80;7.00;;;;;;;;;;4937448;29;20496;-63
2023/03/21 00:05:44;;;;;;;8.03;7.23;;;;;;;;;;4936003;29;20459;-63
2023/03/21 00:08:10;;;;;;;7.90;6.90;;;;;;;;;;4937212;29;20425;-62
2023/03/21 00:10:36;;;;;;;7.30;6.73;;;;;;;;;;4937125;29;21002;-62
2023/03/21 00:13:02;;;;;;;6.97;6.37;;;;;;;;;;4936267;29;20447;-63
2023/03/21 00:15:28;;;;;;;7.47;6.87;;;;;;;;;;4937156;29;20483;-62
2023/03/21 00:18:02;;;;;;;13.38;8.75;;;;;;;;;;4936167;29;20442;-62
2023/03/21 00:20:29;;;;;;;10.33;9.30;;;;;;;;;;4935635;29;20216;-63
2023/03/21 00:22:55;;;;;;;15.30;10.43;;;;;;;;;;4936949;29;21022;-62
2023/03/21 00:25:23;;;;;;;10.10;9.00;;;;;;;;;;4936918;29;20495;-63
2023/03/21 00:27:49;;;;;;;7.37;6.67;;;;;;;;;;4937006;29;20421;-61
2023/03/21 00:30:15;;;;;;;5.90;5.47;;;;;;;;;;4937105;29;20793;-63
2023/03/21 00:32:41;;;;;;;6.80;6.30;;;;;;;;;;4936926;29;20479;-62
2023/03/21 00:35:08;;;;;;;9.33;7.27;;;;;;;;;;4937027;29;20428;-62
2023/03/21 00:37:34;;;;;;;7.77;7.17;;;;;;;;;;4936519;29;20530;-63
2023/03/21 00:40:00;;;;;;;7.03;6.43;;;;;;;;;;4936697;29;20488;-62
2023/03/21 00:42:26;;;;;;;6.77;6.27;;;;;;;;;;4936338;29;20484;-62
2023/03/21 00:44:55;;;;;;;8.17;7.47;;;;;;;;;;4936621;29;20416;-62
2023/03/21 00:47:21;;;;;;;7.27;6.67;;;;;;;;;;4935990;29;20417;-62
2023/03/21 00:49:49;;;;;;;7.13;6.53;;;;;;;;;;4936281;29;20427;-63
2023/03/21 00:52:15;;;;;;;7.03;6.43;;;;;;;;;;4935689;29;20471;-62
2023/03/21 00:54:41;;;;;;;6.10;5.60;;;;;;;;;;4936013;29;20812;-62
2023/03/21 00:57:07;;;;;;;7.20;6.70;;;;;;;;;;4935325;29;20527;-62
2023/03/21 00:59:36;;;;;;;6.07;5.57;;;;;;;;;;4935680;29;20755;-62
2023/03/21 01:02:06;;;;;;;8.10;5.50;;;;;;;;;;4935594;29;20417;-62
2023/03/21 01:04:33;;;;;;;8.00;5.20;;;;;;;;;;4935390;29;20421;-62
2023/03/21 01:06:59;;;;;;;5.67;5.27;;;;;;;;;;4936094;29;20424;-62
2023/03/21 01:09:27;;;;;;;5.93;5.23;;;;;;;;;;4936036;29;20838;-62
2023/03/21 01:11:53;;;;;;;5.57;5.27;;;;;;;;;;4935876;29;20419;-63
2023/03/21 01:14:20;;;;;;;5.20;4.90;;;;;;;;;;4936060;29;20788;-63
2023/03/21 01:16:46;;;;;;;5.00;4.60;;;;;;;;;;4934409;29;20456;-62
2023/03/21 01:19:15;;;;;;;4.80;4.50;;;;;;;;;;4935732;29;20483;-63
2023/03/21 01:21:41;;;;;;;4.67;4.40;;;;;;;;;;4935538;29;20460;-62
2023/03/21 01:24:08;;;;;;;5.40;4.87;;;;;;;;;;4935749;29;20888;-63
2023/03/21 01:26:36;;;;;;;5.50;4.87;;;;;;;;;;4935382;29;20416;-62
2023/03/21 01:29:02;;;;;;;5.13;4.47;;;;;;;;;;4935716;29;20934;-64
2023/03/21 01:31:28;;;;;;;5.33;4.70;;;;;;;;;;4935197;29;20692;-63
2023/03/21 01:33:54;;;;;;;4.43;3.97;;;;;;;;;;4935652;29;20444;-62
2023/03/21 01:36:21;;;;;;;4.70;3.87;;;;;;;;;;4935194;29;20467;-62
2023/03/21 01:38:47;;;;;;;4.10;3.90;;;;;;;;;;4935599;29;20446;-63
2023/03/21 01:41:22;;;;;;;4.63;4.23;;;;;;;;;;4935467;29;20416;-63
2023/03/21 01:43:51;;;;;;;4.03;3.77;;;;;;;;;;4933716;29;20947;-63
2023/03/21 01:46:36;;;;;;;8.30;3.90;;;;;;;;;;4933904;29;20749;-63
2023/03/21 01:49:10;;;;;;;4.20;3.80;;;;;;;;;;4935232;29;20394;-63
2023/03/21 01:51:42;;;;;;;3.93;3.60;;;;;;;;;;4934818;29;20450;-62
2023/03/21 01:54:11;;;;;;;3.73;3.63;;;;;;;;;;4935229;29;20828;-62
2023/03/21 01:56:38;;;;;;;4.07;3.97;;;;;;;;;;4934690;29;20443;-62
2023/03/21 01:59:20;;;;;;;3.70;3.60;;;;;;;;;;4935472;29;20409;-62
2023/03/21 02:01:48;;;;;;;4.30;4.10;;;;;;;;;;4935017;29;20507;-62
2023/03/21 02:04:14;;;;;;;4.03;3.80;;;;;;;;;;4935409;29;20423;-62
2023/03/21 02:06:52;;;;;;;4.07;3.90;;;;;;;;;;4933727;29;20455;-63
2023/03/21 02:09:19;;;;;;;4.50;4.00;;;;;;;;;;4935486;29;20427;-62
2023/03/21 02:11:48;;;;;;;3.70;3.40;;;;;;;;;;4934743;29;20943;-62
2023/03/21 02:14:16;;;;;;;4.97;4.57;;;;;;;;;;4934751;29;20391;-62
2023/03/21 02:16:42;;;;;;;5.00;4.60;;;;;;;;;;4935036;29;20408;-63
2023/03/21 02:19:23;;;;;;;5.73;5.23;;;;;;;;;;4934669;29;20398;-62
2023/03/21 02:21:54;;;;;;;6.60;6.10;;;;;;;;;;4935131;29;20394;-62
2023/03/21 02:24:26;;;;;;;9.57;5.70;;;;;;;;;;4935032;29;20787;-62
2023/03/21 02:26:55;;;;;;;9.27;5.60;;;;;;;;;;4935196;29;20427;-62
2023/03/21 02:29:27;;;;;;;6.40;5.77;;;;;;;;;;4935116;29;20470;-62
2023/03/21 02:31:53;;;;;;;5.80;5.30;;;;;;;;;;4935149;29;20595;-62
2023/03/21 02:34:22;;;;;;;7.67;4.73;;;;;;;;;;4935292;29;20440;-62
2023/03/21 02:37:03;;;;;;;5.47;5.07;;;;;;;;;;4933661;29;20415;-63
2023/03/21 02:39:32;;;;;;;4.23;4.10;;;;;;;;;;4934622;29;20425;-62
2023/03/21 02:41:58;;;;;;;3.80;3.60;;;;;;;;;;4935065;29;20387;-63
2023/03/21 02:44:43;;;;;;;3.90;3.67;;;;;;;;;;4934189;29;20512;-63
2023/03/21 02:47:38;;;;;;;5.50;3.80;;;;;;;;;;4935010;29;20416;-63
2023/03/21 02:50:09;;;;;;;3.60;3.40;;;;;;;;;;4937872;29;20440;-64
2023/03/21 02:52:36;;;;;;;3.80;3.70;;;;;;;;;;4934588;29;20930;-62
2023/03/21 02:55:03;;;;;;;4.17;3.77;;;;;;;;;;4934562;29;20415;-62
2023/03/21 02:57:30;;;;;;;4.03;3.78;;;;;;;;;;4938413;29;20460;-62
2023/03/21 02:59:58;;;;;;;4.40;4.10;;;;;;;;;;4937949;29;20248;-63
2023/03/21 03:02:26;;;;;;;4.63;4.33;;;;;;;;;;4938378;29;20443;-63
2023/03/21 03:04:53;;;;;;;4.00;3.80;;;;;;;;;;4937598;29;20412;-62
2023/03/21 03:07:31;;;;;;;4.00;3.88;;;;;;;;;;4938192;29;20511;-62
2023/03/21 03:10:15;;;;;;;4.63;4.32;;;;;;;;;;4937749;29;20184;-62
2023/03/21 03:12:49;;;;;;;7.00;5.60;;;;;;;;;;4938082;29;20227;-62
2023/03/21 03:15:29;;;;;;;4.77;4.57;;;;;;;;;;4938097;29;20475;-62
2023/03/21 03:17:56;;;;;;;5.03;4.67;;;;;;;;;;4936729;29;20545;-62
2023/03/21 03:20:22;;;;;;;6.22;5.72;;;;;;;;;;4937754;29;20939;-62
2023/03/21 03:22:48;;;;;;;5.47;4.85;;;;;;;;;;4937711;29;20637;-62
2023/03/21 03:25:22;;;;;;;5.07;4.73;;;;;;;;;;4937832;29;20450;-62
2023/03/21 03:27:52;;;;;;;5.03;4.63;;;;;;;;;;4937663;29;20402;-63
2023/03/21 03:30:18;;;;;;;4.60;4.30;;;;;;;;;;4938113;29;20414;-63
2023/03/21 03:32:48;;;;;;;4.82;4.40;;;;;;;;;;4937272;29;20875;-62
2023/03/21 03:35:15;;;;;;;4.60;4.30;;;;;;;;;;4937744;29;20208;-63
2023/03/21 03:37:41;;;;;;;4.55;4.35;;;;;;;;;;4937660;29;20306;-63
2023/03/21 03:40:07;;;;;;;4.33;4.07;;;;;;;;;;4937634;29;20246;-61
2023/03/21 03:42:40;;;;;;;4.30;3.93;;;;;;;;;;4937012;29;20412;-62
2023/03/21 03:45:07;;;;;;;6.73;3.50;;;;;;;;;;4937573;29;20386;-62
2023/03/21 03:47:46;;;;;;;4.10;3.80;;;;;;;;;;4937025;29;20480;-63
2023/03/21 03:50:15;;;;;;;4.03;3.83;;;;;;;;;;4937732;29;20420;-63
2023/03/21 03:52:50;;;;;;;3.70;3.60;;;;;;;;;;4937422;29;20651;-63
2023/03/21 03:55:17;;;;;;;4.43;3.63;;;;;;;;;;4936583;29;20187;-63
2023/03/21 03:57:44;;;;;;;4.18;4.07;;;;;;;;;;4937647;29;20523;-62
2023/03/21 04:00:11;;;;;;;3.50;3.30;;;;;;;;;;4937296;29;20177;-63
2023/03/21 04:02:38;;;;;;;4.35;3.92;;;;;;;;;;4937188;29;20412;-63
2023/03/21 04:05:04;;;;;;;4.18;3.97;;;;;;;;;;4937059;29;20187;-63
2023/03/21 04:07:30;;;;;;;4.22;3.90;;;;;;;;;;4936628;29;20192;-63
2023/03/21 04:09:58;;;;;;;4.40;4.00;;;;;;;;;;4937009;29;20311;-62
2023/03/21 04:12:25;;;;;;;5.73;5.37;;;;;;;;;;4937015;29;20188;-61
2023/03/21 04:14:50;;;;;;;8.32;7.32;;;;;;;;;;4935666;29;20971;-62
2023/03/21 04:17:17;;;;;;;8.00;7.20;;;;;;;;;;4937204;29;20262;-63
2023/03/21 04:19:44;;;;;;;5.68;5.25;;;;;;;;;;4937017;29;20441;-63
2023/03/21 04:22:11;;;;;;;5.15;4.95;;;;;;;;;;4936994;29;20615;-63
2023/03/21 04:24:37;;;;;;;6.00;4.45;;;;;;;;;;4937323;29;20558;-62
2023/03/21 04:27:04;;;;;;;11.65;5.20;;;;;;;;;;4936842;29;20670;-63
2023/03/21 04:29:31;;;;;;;5.40;5.10;;;;;;;;;;4936994;29;20181;-61
2023/03/21 04:31:57;;;;;;;5.70;5.30;;;;;;;;;;4936896;29;20200;-62
2023/03/21 04:34:26;;;;;;;4.90;4.50;;;;;;;;;;4936494;29;20176;-62
2023/03/21 04:36:55;;;;;;;4.85;4.50;;;;;;;;;;4936267;29;20813;-62
2023/03/21 04:39:21;;;;;;;5.07;4.60;;;;;;;;;;4936334;29;20648;-62
2023/03/21 04:41:49;;;;;;;5.35;4.95;;;;;;;;;;4936318;29;20393;-62
2023/03/21 04:44:16;;;;;;;5.10;4.60;;;;;;;;;;4936293;29;20181;-62
2023/03/21 04:46:45;;;;;;;4.68;4.47;;;;;;;;;;4936311;29;20264;-62
2023/03/21 04:49:11;;;;;;;5.55;5.25;;;;;;;;;;4936132;29;20264;-62
2023/03/21 04:51:37;;;;;;;8.02;4.30;;;;;;;;;;4935932;29;20267;-62
2023/03/21 04:54:04;;;;;;;8.93;7.18;;;;;;;;;;4936010;29;20211;-62
2023/03/21 04:56:34;;;;;;;6.83;4.13;;;;;;;;;;4935651;29;20182;-62
2023/03/21 04:59:02;;;;;;;4.68;4.30;;;;;;;;;;4934217;29;20495;-62
2023/03/21 05:01:29;;;;;;;3.85;3.72;;;;;;;;;;4935837;29;20227;-62
2023/03/21 05:03:57;;;;;;;3.60;3.28;;;;;;;;;;4935482;29;20694;-62
2023/03/21 05:06:23;;;;;;;5.43;5.05;;;;;;;;;;4935990;29;20749;-62
2023/03/21 05:08:49;;;;;;;98.27;57.40;;;;;;;;;;4935539;29;20259;-62
2023/03/21 05:11:15;;;;;;;111.43;57.03;;;;;;;;;;4935717;29;20432;-62
2023/03/21 05:13:40;;;;;;;46.80;27.10;;;;;;;;;;4935378;29;20770;-62
2023/03/21 05:16:07;;;;;;;60.50;35.57;;;;;;;;;;4935355;29;20466;-62
2023/03/21 05:18:33;;;;;;;66.60;38.33;;;;;;;;;;4933939;29;20460;-62
2023/03/21 05:20:59;;;;;;;33.77;20.67;;;;;;;;;;4935580;29;20439;-62
2023/03/21 05:23:30;;;;;;;6.07;5.53;;;;;;;;;;4935008;29;20491;-62
2023/03/21 05:25:56;;;;;;;44.23;28.10;;;;;;;;;;4935658;29;20420;-62
2023/03/21 05:28:30;;;;;;;44.10;28.00;;;;;;;;;;4935012;29;20399;-62
2023/03/21 05:30:56;;;;;;;25.00;14.77;;;;;;;;;;4935418;29;20423;-62
2023/03/21 05:33:22;;;;;;;11.30;9.70;;;;;;;;;;4935038;29;20924;-62
2023/03/21 05:35:51;;;;;;;5.60;5.30;;;;;;;;;;4935497;29;20432;-62
2023/03/21 05:38:17;;;;;;;39.57;28.50;;;;;;;;;;4933862;29;20459;-62
2023/03/21 05:40:50;;;;;;;35.47;26.67;;;;;;;;;;4935197;29;20467;-62
2023/03/21 05:43:16;;;;;;;5.50;5.20;;;;;;;;;;4935288;29;20511;-61
2023/03/21 05:45:42;;;;;;;7.23;3.97;;;;;;;;;;4935250;29;20986;-62
2023/03/21 05:48:11;;;;;;;3.88;3.78;;;;;;;;;;4935293;29;20972;-61
2023/03/21 05:50:38;;;;;;;3.50;3.38;;;;;;;;;;4934723;29;20219;-61
2023/03/21 05:53:04;;;;;;;3.90;3.80;;;;;;;;;;4934032;29;20559;-62
2023/03/21 05:55:30;;;;;;;3.85;3.65;;;;;;;;;;4934647;29;20188;-62
2023/03/21 05:57:58;;;;;;;3.80;3.50;;;;;;;;;;4935169;29;20282;-61
2023/03/21 06:00:27;;;;;;;5.20;4.70;;;;;;;;;;4934870;29;20420;-62
2023/03/21 06:02:53;;;;;;;27.53;20.17;;;;;;;;;;4935178;29;20416;-62
2023/03/21 06:05:19;;;;;;;9.98;8.50;;;;;;;;;;4934479;29;20497;-61
2023/03/21 06:07:47;;;;;;;18.23;6.27;;;;;;;;;;4935576;29;20223;-62
2023/03/21 06:10:14;;;;;;;9.50;6.60;;;;;;;;;;4934715;29;20914;-62
2023/03/21 06:12:42;;;;;;;7.10;6.50;;;;;;;;;;4934991;29;20461;-62
2023/03/21 06:15:09;;;;;;;11.65;5.78;;;;;;;;;;4934596;29;20420;-62
2023/03/21 06:17:35;;;;;;;5.78;5.22;;;;;;;;;;4934050;29;20219;-62
2023/03/21 06:20:04;;;;;;;5.63;5.15;;;;;;;;;;4934886;29;20199;-62
2023/03/21 06:22:30;;;;;;;5.73;5.23;;;;;;;;;;4934627;29;20204;-63
2023/03/21 06:24:56;;;;;;;6.73;4.93;;;;;;;;;;4934628;29;20480;-62
2023/03/21 06:27:22;;;;;;;10.33;5.43;;;;;;;;;;4934797;29;20444;-63
2023/03/21 06:29:48;;;;;;;5.87;5.33;;;;;;;;;;4936306;29;20398;-63
2023/03/21 06:32:15;;;;;;;5.00;4.70;;;;;;;;;;4938752;29;20394;-62
2023/03/21 06:34:41;;;;;;;4.40;4.20;;;;;;;;;;4938917;29;20386;-63
2023/03/21 06:37:09;;;;;;;4.30;4.00;;;;;;;;;;4938538;29;20450;-63
2023/03/21 06:39:35;;;;;;;7.50;4.87;;;;;;;;;;4937595;29;20399;-62
2023/03/21 06:42:01;;;;;;;5.90;5.30;;;;;;;;;;4938996;29;20402;-62
2023/03/21 06:44:28;;;;;;;5.67;5.13;;;;;;;;;;4938781;29;20753;-62
2023/03/21 06:46:54;;;;;;;4.60;4.50;;;;;;;;;;4938768;29;20447;-62
2023/03/21 06:49:20;;;;;;;4.90;4.70;;;;;;;;;;4938611;29;20412;-62
2023/03/21 06:51:48;;;;;;;4.10;3.90;;;;;;;;;;4938726;29;20420;-62
2023/03/21 06:54:17;;;;;;;4.60;4.33;;;;;;;;;;4938603;29;20394;-62
2023/03/21 06:56:45;;;;;;;5.37;4.87;;;;;;;;;;4938539;29;20416;-62
2023/03/21 06:59:12;;;;;;;4.13;3.93;;;;;;;;;;4938563;29;20477;-62
2023/03/21 07:01:38;;;;;;;4.10;3.90;;;;;;;;;;4938520;29;20777;-62
2023/03/21 07:04:05;;;;;;;4.07;3.70;;;;;;;;;;4938447;29;20467;-62
2023/03/21 07:06:31;;;;;;;3.27;3.23;;;;;;;;;;4938219;29;20838;-62
2023/03/21 07:08:57;;;;;;;3.80;3.70;;;;;;;;;;4937122;29;20497;-62
2023/03/21 07:11:24;;;;;;;3.83;3.63;;;;;;;;;;4937150;29;20420;-62
2023/03/21 07:13:50;;;;;;;3.90;3.77;;;;;;;;;;4938257;29;20440;-62
2023/03/21 07:16:17;;;;;;;3.67;3.57;;;;;;;;;;4938008;29;20423;-61
2023/03/21 07:18:45;;;;;;;4.30;3.53;;;;;;;;;;4938121;29;20865;-61
2023/03/21 07:21:11;;;;;;;3.40;3.30;;;;;;;;;;4938033;29;20788;-61
2023/03/21 07:23:37;;;;;;;3.60;3.27;;;;;;;;;;4937701;29;20436;-62
2023/03/21 07:26:04;;;;;;;3.80;3.50;;;;;;;;;;4937195;29;20413;-61
2023/03/21 07:28:32;;;;;;;4.10;4.00;;;;;;;;;;4937126;29;20460;-62
2023/03/21 07:31:03;;;;;;;5.70;5.30;;;;;;;;;;4937152;29;20424;-62
2023/03/21 07:33:29;;;;;;;4.93;4.73;;;;;;;;;;4937455;29;20931;-62
2023/03/21 07:35:56;;;;;;;5.77;5.47;;;;;;;;;;4937199;29;20451;-61
2023/03/21 07:38:25;;;;;;;6.10;5.70;;;;;;;;;;4937027;29;20480;-62
2023/03/21 07:40:51;;;;;;;5.17;4.97;;;;;;;;;;4936690;29;20498;-62
2023/03/21 07:43:17;;;;;;;5.93;4.77;;;;;;;;;;4936992;29;20443;-62
2023/03/21 07:45:43;;;;;;;5.20;5.00;;;;;;;;;;4937134;29;20412;-61
2023/03/21 07:48:11;;;;;;;4.80;4.57;;;;;;;;;;4936749;29;20420;-61
2023/03/21 07:50:37;;;;;;;5.10;4.70;;;;;;;;;;4937233;29;20444;-62
2023/03/21 07:53:06;;;;;;;5.00;4.70;;;;;;;;;;4936807;29;20801;-61
2023/03/21 07:55:33;;;;;;;4.40;4.10;;;;;;;;;;4937272;29;20888;-61
2023/03/21 07:58:00;;;;;;;4.67;4.47;;;;;;;;;;4936767;29;20963;-61
2023/03/21 08:00:26;;;;;;;4.80;4.60;;;;;;;;;;4937109;29;20424;-61
2023/03/21 08:02:53;;;;;;;5.13;4.83;;;;;;;;;;4937118;29;20413;-61
2023/03/21 08:05:23;;;;;;;5.83;5.20;;;;;;;;;;4937088;29;20419;-61
2023/03/21 08:07:50;;;;;;;5.90;5.50;;;;;;;;;;4937104;29;20911;-61
2023/03/21 08:10:16;;;;;;;10.17;6.17;;;;;;;;;;4936877;29;20420;-61
2023/03/21 08:12:43;;;;;;;5.90;5.50;;;;;;;;;;4936934;29;20474;-61
2023/03/21 08:15:11;;;;;;;6.60;6.00;;;;;;;;;;4927463;29;20447;-61
2023/03/21 08:17:38;;;;;;;8.10;5.90;;;;;;;;;;4927764;29;20539;-60
2023/03/21 08:20:08;;;;;;;6.17;5.57;;;;;;;;;;4925695;29;20425;-61
2023/03/21 08:22:35;;;;;;;7.47;5.63;;;;;;;;;;4926255;29;20922;-61
2023/03/21 08:25:04;;;;;;;6.57;5.53;;;;;;;;;;4927982;29;20455;-61
2023/03/21 08:27:30;;;;;;;5.20;4.87;;;;;;;;;;4926494;29;20465;-61
2023/03/21 08:29:56;;;;;;;6.33;5.73;;;;;;;;;;4930964;29;20502;-61
2023/03/21 08:32:28;;;;;;;5.83;5.43;;;;;;;;;;4936014;29;20895;-62
2023/03/21 08:34:54;;;;;;;8.37;7.57;;;;;;;;;;4936506;29;20567;-62
2023/03/21 08:37:20;;;;;;;7.40;6.70;;;;;;;;;;4936401;29;20471;-62
2023/03/21 08:39:49;;;;;;;6.50;6.00;;;;;;;;;;4936839;29;20440;-60
2023/03/21 08:42:15;;;;;;;5.90;5.50;;;;;;;;;;4936182;29;20419;-61
2023/03/21 08:44:41;;;;;;;6.20;5.63;;;;;;;;;;4936255;29;20419;-60
2023/03/21 08:47:09;;;;;;;19.23;11.37;;;;;;;;;;4935963;29;20904;-61
2023/03/21 08:49:38;;;;;;;9.80;6.17;;;;;;;;;;4936163;29;20432;-61
2023/03/21 08:52:06;;;;;;;11.70;10.00;;;;;;;;;;4936187;29;20412;-60
2023/03/21 08:54:32;;;;;;;19.70;13.03;;;;;;;;;;4936294;29;20513;-61
2023/03/21 08:56:58;;;;;;;19.47;12.80;;;;;;;;;;4936160;29;20451;-61
2023/03/21 08:59:24;;;;;;;19.80;12.60;;;;;;;;;;4936294;29;20468;-61
2023/03/21 09:01:50;;;;;;;6.43;4.43;;;;;;;;;;4936412;29;20472;-62
2023/03/21 09:04:17;;;;;;;10.33;9.33;;;;;;;;;;4935367;29;20482;-61
2023/03/21 09:06:47;;;;;;;5.33;4.40;;;;;;;;;;4936238;29;20424;-61
2023/03/21 09:09:14;;;;;;;4.20;4.00;;;;;;;;;;4935253;29;20440;-61
2023/03/21 09:11:40;;;;;;;5.30;2.90;;;;;;;;;;4935521;29;20424;-61
2023/03/21 09:14:10;;;;;;;2.97;2.87;;;;;;;;;;4935319;29;20535;-62
2023/03/21 09:16:36;;;;;;;2.30;2.20;;;;;;;;;;4935724;29;20423;-61
2023/03/21 09:19:03;;;;;;;2.47;2.47;;;;;;;;;;4935835;29;20865;-61
2023/03/21 09:21:32;;;;;;;4.97;2.73;;;;;;;;;;4936061;29;20448;-61
2023/03/21 09:23:59;;;;;;;2.83;2.73;;;;;;;;;;4935803;29;20943;-61
2023/03/21 09:26:27;;;;;;;3.00;2.30;;;;;;;;;;4935752;29;20751;-61
2023/03/21 09:28:53;;;;;;;2.00;1.90;;;;;;;;;;4935742;29;20470;-61
2023/03/21 09:31:21;;;;;;;3.83;2.60;;;;;;;;;;4935223;29;20413;-61
2023/03/21 09:33:48;;;;;;;2.50;2.40;;;;;;;;;;4935519;29;20926;-62
2023/03/21 09:36:17;;;;;;;2.67;2.57;;;;;;;;;;4935546;29;20450;-62
2023/03/21 09:38:45;;;;;;;3.57;3.37;;;;;;;;;;4935454;29;20475;-62
2023/03/21 09:41:32;;;;;;;2.77;2.67;;;;;;;;;;4935762;29;20416;-61
2023/03/21 09:44:16;;;;;;;2.73;2.37;;;;;;;;;;4935664;29;20412;-61
2023/03/21 09:46:43;;;;;;;2.30;2.30;;;;;;;;;;4935364;29;20911;-61
2023/03/21 09:49:17;;;;;;;2.20;2.10;;;;;;;;;;4935441;29;20416;-61
2023/03/21 09:51:45;;;;;;;2.30;2.20;;;;;;;;;;4935377;29;20419;-62
2023/03/21 09:54:15;;;;;;;2.60;2.50;;;;;;;;;;4935256;29;20420;-62
2023/03/21 09:56:42;;;;;;;3.70;2.20;;;;;;;;;;4935398;29;20417;-62
2023/03/21 09:59:14;;;;;;;2.37;2.20;;;;;;;;;;4935079;29;20470;-62
2023/03/21 10:01:44;;;;;;;2.70;2.50;;;;;;;;;;4935448;29;20786;-62
2023/03/21 10:04:12;;;;;;;2.90;2.70;;;;;;;;;;4934991;29;20418;-63
2023/03/21 10:06:40;;;;;;;2.90;2.80;;;;;;;;;;4935390;29;20505;-62
2023/03/21 10:09:08;;;;;;;2.73;2.63;;;;;;;;;;4935136;29;20477;-63
2023/03/21 10:11:54;;;;;;;2.70;2.60;;;;;;;;;;4935293;29;20421;-62
2023/03/21 10:14:24;;;;;;;2.93;2.60;;;;;;;;;;4943635;28;20832;-62
2023/03/21 10:16:55;;;;;;;2.27;2.27;;;;;;;;;;4935286;29;20414;-62
2023/03/21 10:19:22;;;;;;;6.93;2.80;;;;;;;;;;4935169;29;20800;-62
2023/03/21 10:21:49;;;;;;;2.50;2.40;;;;;;;;;;4935220;29;20512;-63
2023/03/21 10:24:25;;;;;;;2.30;2.20;;;;;;;;;;4935198;29;20453;-63
2023/03/21 10:26:52;;;;;;;2.60;2.30;;;;;;;;;;4935197;29;20453;-63
2023/03/21 10:29:21;;;;;;;5.00;2.00;;;;;;;;;;4935225;29;20414;-63
2023/03/21 10:31:50;;;;;;;2.63;2.53;;;;;;;;;;4935243;29;20427;-63
2023/03/21 10:34:20;;;;;;;2.40;2.40;;;;;;;;;;4935178;29;20485;-63
2023/03/21 10:36:46;;;;;;;2.50;2.10;;;;;;;;;;4934902;29;20531;-62
2023/03/21 10:39:26;;;;;;;2.20;2.10;;;;;;;;;;4935025;29;20995;-63
2023/03/21 10:41:52;;;;;;;2.60;2.50;;;;;;;;;;4935195;29;20416;-63
2023/03/21 10:44:19;;;;;;;2.90;2.67;;;;;;;;;;4935068;29;20423;-63
2023/03/21 10:46:55;;;;;;;2.40;2.20;;;;;;;;;;4935082;29;20939;-63
2023/03/21 10:49:25;;;;;;;1.93;1.83;;;;;;;;;;4935008;29;20423;-63
2023/03/21 10:51:52;;;;;;;2.30;2.20;;;;;;;;;;4934862;29;20416;-63
2023/03/21 10:54:20;;;;;;;2.30;2.30;;;;;;;;;;4935061;29;20421;-63
2023/03/21 10:57:07;;;;;;;4.30;2.70;;;;;;;;;;4934999;29;20508;-63
2023/03/21 10:59:42;;;;;;;4.10;2.97;;;;;;;;;;4934957;29;20434;-63
2023/03/21 11:02:16;;;;;;;20.20;15.80;;;;;;;;;;4934842;29;20955;-63
2023/03/21 11:04:43;;;;;;;6.50;5.20;;;;;;;;;;4933246;29;20426;-63
2023/03/21 11:07:15;;;;;;;3.70;2.30;;;;;;;;;;4934565;29;20408;-63
2023/03/21 11:09:44;;;;;;;3.73;3.27;;;;;;;;;;4934338;29;20505;-63
2023/03/21 11:12:12;;;;;;;3.97;3.20;;;;;;;;;;4934551;29;20759;-63
2023/03/21 11:14:40;;;;;;;3.60;2.77;;;;;;;;;;4934446;29;20498;-63
2023/03/21 11:17:31;;;;;;;2.67;2.50;;;;;;;;;;4935905;29;20837;-63
2023/03/21 11:19:58;;;;;;;2.67;2.33;;;;;;;;;;4938297;29;20441;-63
2023/03/21 11:22:26;;;;;;;1.80;1.80;;;;;;;;;;4938142;29;20415;-63
2023/03/21 11:24:56;;;;;;;2.07;2.03;;;;;;;;;;4937888;29;21139;-63
2023/03/21 11:27:28;;;;;;;3.63;2.10;;;;;;;;;;4937871;29;20408;-63
2023/03/21 11:29:56;;;;;;;3.53;2.20;;;;;;;;;;4938165;29;20491;-63
2023/03/21 11:32:36;;;;;;;2.30;2.10;;;;;;;;;;4938010;29;20416;-62
2023/03/21 11:35:06;;;;;;;2.23;2.13;;;;;;;;;;4937402;29;20973;-62
2023/03/21 11:37:34;;;;;;;8.43;2.70;;;;;;;;;;4937324;29;20477;-63
2023/03/21 11:40:14;;;;;;;5.60;2.30;;;;;;;;;;4937622;29;20428;-63
2023/03/21 11:42:42;;;;;;;3.57;2.60;;;;;;;;;;4937370;29;20471;-63
2023/03/21 11:45:11;;;;;;;2.30;2.03;;;;;;;;;;4937871;29;20418;-63
2023/03/21 11:47:38;;;;;;;2.40;2.30;;;;;;;;;;4937397;29;20417;-63
2023/03/21 11:50:13;;;;;;;2.40;2.30;;;;;;;;;;4937542;29;20418;-63
2023/03/21 11:52:43;;;;;;;1.90;1.80;;;;;;;;;;4937260;29;20764;-63
2023/03/21 11:55:09;;;;;;;1.80;1.80;;;;;;;;;;4937292;29;20505;-63
2023/03/21 11:57:58;;;;;;;1.90;1.80;;;;;;;;;;4937207;29;20571;-63
2023/03/21 12:00:47;;;;;;;2.67;2.47;;;;;;;;;;4936025;29;20427;-63
2023/03/21 12:03:38;;;;;;;2.10;2.10;;;;;;;;;;4937248;29;20416;-63
2023/03/21 12:06:10;;;;;;;2.30;2.27;;;;;;;;;;4935595;29;20662;-63
2023/03/21 12:08:36;;;;;;;2.10;2.10;;;;;;;;;;4937142;29;20512;-63
2023/03/21 12:11:24;;;;;;;2.37;2.17;;;;;;;;;;4937166;29;20497;-63
2023/03/21 12:13:56;;;;;;;2.20;2.10;;;;;;;;;;4936782;29;20424;-63
2023/03/21 12:16:40;;;;;;;2.93;2.83;;;;;;;;;;4937240;29;20755;-63
2023/03/21 12:19:12;;;;;;;2.60;2.50;;;;;;;;;;4936483;29;20528;-65
2023/03/21 12:21:47;;;;;;;2.13;2.03;;;;;;;;;;4936783;29;20802;-64
2023/03/21 12:24:24;;;;;;;2.77;2.63;;;;;;;;;;4936468;29;20889;-64
2023/03/21 12:26:50;;;;;;;3.60;3.30;;;;;;;;;;4936876;29;20421;-64
2023/03/21 12:29:28;;;;;;;2.80;2.60;;;;;;;;;;4935057;29;20794;-64
2023/03/21 12:32:13;;;;;;;2.60;2.40;;;;;;;;;;4936499;29;20425;-65
2023/03/21 12:34:54;;;;;;;2.40;2.20;;;;;;;;;;4936881;29;20418;-64
2023/03/21 12:37:23;;;;;;;1.53;1.40;;;;;;;;;;4936370;29;20488;-64
2023/03/21 12:39:50;;;;;;;2.30;1.70;;;;;;;;;;4936741;29;20891;-64
2023/03/21 12:42:40;;;;;;;1.50;1.47;;;;;;;;;;4936566;29;20417;-64
2023/03/21 12:45:12;;;;;;;1.57;1.53;;;;;;;;;;4936108;29;20477;-64
2023/03/21 12:47:40;;;;;;;1.40;1.30;;;;;;;;;;4936321;29;20428;-64
2023/03/21 12:50:13;;;;;;;1.37;1.37;;;;;;;;;;4936061;29;20425;-64
2023/03/21 12:52:41;;;;;;;1.30;1.30;;;;;;;;;;4934911;29;20888;-64
2023/03/21 12:55:14;;;;;;;1.47;1.37;;;;;;;;;;4936045;29;20509;-64
2023/03/21 12:57:42;;;;;;;1.40;1.40;;;;;;;;;;4935960;29;20457;-64
2023/03/21 13:00:17;;;;;;;1.53;1.47;;;;;;;;;;4935828;29;20441;-65
2023/03/21 13:02:47;;;;;;;1.40;1.20;;;;;;;;;;4935805;29;20423;-65
2023/03/21 13:05:26;;;;;;;1.10;1.10;;;;;;;;;;4935742;29;20496;-65
2023/03/21 13:07:56;;;;;;;1.37;1.23;;;;;;;;;;4935848;29;20508;-64
2023/03/21 13:10:23;;;;;;;2.53;1.30;;;;;;;;;;4935670;29;20420;-65
2023/03/21 13:13:01;;;;;;;1.57;1.47;;;;;;;;;;4935896;29;20638;-64
2023/03/21 13:15:36;;;;;;;1.13;1.13;;;;;;;;;;4935701;29;20500;-64
2023/03/21 13:18:21;;;;;;;1.33;1.17;;;;;;;;;;4935707;29;20844;-64
2023/03/21 13:20:51;;;;;;;1.30;1.30;;;;;;;;;;4935481;29;20423;-64
2023/03/21 13:23:18;;;;;;;1.57;1.57;;;;;;;;;;4935464;29;20847;-64
2023/03/21 13:25:46;;;;;;;3.03;1.40;;;;;;;;;;4935579;29;20500;-64
2023/03/21 13:28:25;;;;;;;2.50;1.10;;;;;;;;;;4935131;29;21012;-64
2023/03/21 13:30:53;;;;;;;1.10;1.10;;;;;;;;;;4935505;29;20424;-64
2023/03/21 13:33:25;;;;;;;1.30;1.30;;;;;;;;;;4935307;29;20413;-64
2023/03/21 13:36:08;;;;;;;1.33;1.23;;;;;;;;;;4935142;29;20813;-64
2023/03/21 13:38:37;;;;;;;2.40;1.10;;;;;;;;;;4935224;29;20552;-64
2023/03/21 13:41:32;;;;;;;1.10;1.10;;;;;;;;;;4935091;29;20566;-64
2023/03/21 13:44:01;;;;;;;2.33;1.23;;;;;;;;;;4942467;28;21024;-64
2023/03/21 13:46:27;;;;;;;2.20;2.10;;;;;;;;;;4934905;29;20920;-64
2023/03/21 13:48:58;;;;;;;2.10;1.00;;;;;;;;;;4935113;29;20422;-64
2023/03/21 13:51:36;;;;;;;1.20;1.20;;;;;;;;;;4935074;29;20509;-64
2023/03/21 13:54:17;;;;;;;1.20;1.20;;;;;;;;;;4935079;29;20787;-64
2023/03/21 13:56:44;;;;;;;1.13;1.13;;;;;;;;;;4935067;29;20438;-64
2023/03/21 13:59:11;;;;;;;1.20;1.20;;;;;;;;;;4935024;29;20580;-64
2023/03/21 14:01:41;;;;;;;1.00;1.00;;;;;;;;;;4935122;29;20419;-64
2023/03/21 14:04:10;;;;;;;1.40;1.40;;;;;;;;;;4935129;29;20844;-64
2023/03/21 14:06:44;;;;;;;3.50;1.57;;;;;;;;;;4934748;29;20433;-64
2023/03/21 14:09:16;;;;;;;1.27;1.00;;;;;;;;;;4934957;29;20422;-64
2023/03/21 14:11:47;;;;;;;1.37;1.37;;;;;;;;;;4934887;29;20430;-64
2023/03/21 14:14:14;;;;;;;1.17;1.17;;;;;;;;;;4934796;29;20521;-64
2023/03/21 14:16:40;;;;;;;1.50;1.40;;;;;;;;;;4935123;29;20459;-64
2023/03/21 14:19:10;;;;;;;3.90;1.10;;;;;;;;;;4934619;29;20549;-64
2023/03/21 14:21:37;;;;;;;1.40;1.40;;;;;;;;;;4934534;29;20425;-64
2023/03/21 14:24:02;;;;;;;0.83;0.83;;;;;;;;;;4934518;29;20441;-64
2023/03/21 14:26:31;;;;;;;1.20;1.20;;;;;;;;;;4934835;29;20418;-64
2023/03/21 14:28:57;;;;;;;2.87;1.30;;;;;;;;;;4934720;29;20445;-64
2023/03/21 14:31:24;;;;;;;1.13;1.13;;;;;;;;;;4934402;29;20461;-64
2023/03/21 14:33:52;;;;;;;4.73;1.13;;;;;;;;;;4934515;29;20469;-64
2023/03/21 14:36:21;;;;;;;3.90;1.10;;;;;;;;;;4934524;29;20460;-64
2023/03/21 14:38:59;;;;;;;1.30;1.30;;;;;;;;;;4934700;29;20466;-64
2023/03/21 14:41:26;;;;;;;1.30;1.20;;;;;;;;;;4934638;29;20472;-64
2023/03/21 14:44:11;;;;;;;3.83;1.20;;;;;;;;;;4934849;29;20418;-64
2023/03/21 14:46:37;;;;;;;1.13;1.13;;;;;;;;;;4933372;29;20460;-64
2023/03/21 14:49:10;;;;;;;1.10;1.10;;;;;;;;;;4934714;29;20422;-64
2023/03/21 14:51:37;;;;;;;3.50;1.10;;;;;;;;;;4936701;29;20449;-64
2023/03/21 14:54:05;;;;;;;0.87;0.87;;;;;;;;;;4938421;29;20928;-64